Time;durP1;ratioP1;P1;durP2;ratioP2;P2;SDS_P1;SDS_P2;PMS_P1;PMS_P2;Temp;Humidity;BMP_temperature;BMP_pressure;BME280_temperature;BME280_humidity;BME280_pressure;Samples;Min_cycle;Max_cycle;Signal;HPM_P1;HPM_P2
2022/11/28 00:02:15;;;;;;;5.85;3.97;;;8.00;99.90;;;;;;5025751;28;20034;-74
2022/11/28 00:04:41;;;;;;;3.30;3.03;;;8.10;99.90;;;;;;5025037;28;20066;-74
2022/11/28 00:07:09;;;;;;;3.90;3.60;;;8.10;99.90;;;;;;5026770;28;20033;-76
2022/11/28 00:09:35;;;;;;;2.80;2.55;;;8.10;99.90;;;;;;5029860;28;20125;-76
2022/11/28 00:12:00;;;;;;;3.50;3.20;;;8.10;99.90;;;;;;5045286;28;20601;-74
2022/11/28 00:14:26;;;;;;;3.25;2.95;;;8.10;99.90;;;;;;5046867;28;20040;-74
2022/11/28 00:16:52;;;;;;;3.40;3.00;;;8.10;99.90;;;;;;5045169;28;20034;-74
2022/11/28 00:19:17;;;;;;;3.53;2.88;;;8.10;99.90;;;;;;5045840;28;20060;-77
2022/11/28 00:21:43;;;;;;;3.35;3.08;;;8.10;99.90;;;;;;5046733;28;20485;-76
2022/11/28 00:24:10;;;;;;;2.03;1.83;;;8.10;99.90;;;;;;5046315;28;20037;-76
2022/11/28 00:26:41;;;;;;;3.53;3.08;;;8.20;99.90;;;;;;5028674;28;20029;-76
2022/11/28 00:29:08;;;;;;;3.60;2.45;;;8.20;99.90;;;;;;5045380;28;20037;-76
2022/11/28 00:31:40;;;;;;;2.58;2.25;;;8.20;99.90;;;;;;5025987;28;20455;-76
2022/11/28 00:34:08;;;;;;;2.63;2.42;;;8.30;99.90;;;;;;5026537;28;20029;-76
2022/11/28 00:36:34;;;;;;;2.70;2.50;;;8.40;99.90;;;;;;5026575;28;20026;-75
2022/11/28 00:39:00;;;;;;;2.53;1.70;;;8.40;99.90;;;;;;5032618;28;20045;-76
2022/11/28 00:41:28;;;;;;;2.78;1.95;;;8.40;99.90;;;;;;5038556;28;20072;-76
2022/11/28 00:43:54;;;;;;;2.97;1.85;;;8.50;99.90;;;;;;5045040;28;20402;-76
2022/11/28 00:46:21;;;;;;;2.05;1.85;;;8.60;99.90;;;;;;5045873;28;20033;-76
2022/11/28 00:48:47;;;;;;;2.45;2.25;;;8.60;99.90;;;;;;5045972;28;20095;-76
2022/11/28 00:51:15;;;;;;;4.05;2.88;;;8.70;99.90;;;;;;5045392;28;20029;-75
2022/11/28 00:53:43;;;;;;;2.75;2.55;;;8.80;99.90;;;;;;5029182;28;20037;-75
2022/11/28 00:56:12;;;;;;;1.80;1.70;;;8.80;99.90;;;;;;5044291;28;20072;-75
2022/11/28 00:58:39;;;;;;;3.13;2.92;;;8.90;99.90;;;;;;5046017;28;20051;-76
2022/11/28 01:01:11;;;;;;;3.35;3.05;;;8.90;99.90;;;;;;5030077;28;20029;-76
2022/11/28 01:03:38;;;;;;;3.80;1.95;;;9.00;99.90;;;;;;5026028;28;20109;-75
2022/11/28 01:06:05;;;;;;;2.08;1.88;;;9.00;99.90;;;;;;5024711;28;20049;-76
2022/11/28 01:08:31;;;;;;;2.42;1.65;;;9.00;99.90;;;;;;5024946;28;20491;-76
2022/11/28 01:10:57;;;;;;;3.08;1.95;;;9.00;99.90;;;;;;5021003;28;20100;-75
2022/11/28 01:13:23;;;;;;;2.05;1.95;;;9.00;99.90;;;;;;5044378;28;20037;-76
2022/11/28 01:15:49;;;;;;;3.00;2.35;;;9.00;99.90;;;;;;5044508;28;20068;-75
2022/11/28 01:18:16;;;;;;;9.25;4.00;;;8.90;99.90;;;;;;5045402;28;20034;-75
2022/11/28 01:20:41;;;;;;;1.85;1.70;;;8.90;99.90;;;;;;5043830;28;20048;-76
2022/11/28 01:23:08;;;;;;;2.47;1.67;;;8.80;99.90;;;;;;5044715;28;20033;-76
2022/11/28 01:25:34;;;;;;;2.35;2.15;;;8.80;99.90;;;;;;5045479;28;20035;-76
2022/11/28 01:28:00;;;;;;;1.75;1.65;;;8.80;99.90;;;;;;5044441;28;20041;-76
2022/11/28 01:30:26;;;;;;;2.65;2.45;;;8.80;99.90;;;;;;5037051;28;20026;-75
2022/11/28 01:32:52;;;;;;;2.13;1.90;;;8.80;99.90;;;;;;5024709;28;20057;-75
2022/11/28 01:35:17;;;;;;;4.93;2.67;;;8.80;99.90;;;;;;5024354;28;20125;-76
2022/11/28 01:37:43;;;;;;;3.05;2.20;;;8.70;99.90;;;;;;5026090;28;20030;-75
2022/11/28 01:40:11;;;;;;;2.17;1.95;;;8.80;99.90;;;;;;5031244;28;20026;-75
2022/11/28 01:42:37;;;;;;;3.08;1.70;;;8.80;99.90;;;;;;5045640;28;20033;-76
2022/11/28 01:45:17;;;;;;;4.57;2.60;;;8.80;99.90;;;;;;5044239;28;20032;-75
2022/11/28 01:47:44;;;;;;;26.75;2.58;;;8.70;99.90;;;;;;5045432;28;20054;-76
2022/11/28 01:50:11;;;;;;;2.08;1.70;;;8.70;99.90;;;;;;5038266;28;20101;-76
2022/11/28 01:52:41;;;;;;;3.00;2.80;;;8.70;99.90;;;;;;5024485;28;20022;-75
2022/11/28 01:55:09;;;;;;;8.48;2.78;;;8.60;99.90;;;;;;5025816;28;20041;-76
2022/11/28 01:57:35;;;;;;;7.07;2.05;;;8.60;99.90;;;;;;5025585;28;20038;-76
2022/11/28 02:00:12;;;;;;;3.40;3.10;;;8.50;99.90;;;;;;5029686;28;20029;-76
2022/11/28 02:02:49;;;;;;;2.33;2.05;;;8.50;99.90;;;;;;5044189;28;20034;-76
2022/11/28 02:05:17;;;;;;;2.97;2.03;;;8.40;99.90;;;;;;5045409;28;20073;-75
2022/11/28 02:07:43;;;;;;;2.70;2.33;;;8.40;99.90;;;;;;5044102;28;20049;-75
2022/11/28 02:10:13;;;;;;;2.92;2.20;;;8.40;99.90;;;;;;5038777;28;20030;-76
2022/11/28 02:12:48;;;;;;;2.45;2.20;;;8.40;99.90;;;;;;5025544;28;20097;-76
2022/11/28 02:15:33;;;;;;;3.60;2.22;;;8.30;99.90;;;;;;5025504;28;20029;-76
2022/11/28 02:18:18;;;;;;;4.72;2.63;;;8.30;99.90;;;;;;5037271;28;20037;-75
2022/11/28 02:21:01;;;;;;;2.47;2.30;;;8.20;99.90;;;;;;5037750;28;20022;-76
2022/11/28 02:23:47;;;;;;;3.03;2.83;;;8.20;99.90;;;;;;5039406;28;20034;-75
2022/11/28 02:26:34;;;;;;;3.47;2.10;;;8.20;99.90;;;;;;5045234;28;20066;-75
2022/11/28 02:29:02;;;;;;;9.82;2.65;;;8.20;99.90;;;;;;5045530;28;20037;-75
2022/11/28 02:31:56;;;;;;;3.33;3.00;;;8.10;99.90;;;;;;5031694;28;20026;-75
2022/11/28 02:34:49;;;;;;;3.03;2.30;;;8.10;99.90;;;;;;5028922;28;20065;-75
2022/11/28 02:37:40;;;;;;;4.43;2.50;;;8.10;99.90;;;;;;5027576;28;20026;-76
2022/11/28 02:40:21;;;;;;;2.13;1.95;;;8.00;99.90;;;;;;5031295;28;20033;-75
2022/11/28 02:43:26;;;;;;;4.38;2.50;;;8.10;99.90;;;;;;5047248;28;20030;-75
2022/11/28 02:46:02;;;;;;;3.92;3.53;;;8.10;99.90;;;;;;5048399;28;20125;-76
2022/11/28 02:48:39;;;;;;;2.47;2.28;;;8.00;99.90;;;;;;5047291;28;20029;-76
2022/11/28 02:51:27;;;;;;;3.30;3.05;;;8.00;99.90;;;;;;5036456;28;20364;-75
2022/11/28 02:53:55;;;;;;;8.18;2.85;;;7.90;99.90;;;;;;5027343;28;20040;-76
2022/11/28 02:56:23;;;;;;;2.47;1.67;;;7.90;99.90;;;;;;5028268;28;20034;-76
2022/11/28 02:58:49;;;;;;;2.50;2.30;;;7.90;99.90;;;;;;5031319;28;20029;-76
2022/11/28 03:01:21;;;;;;;5.72;2.40;;;8.00;99.90;;;;;;5047839;28;20482;-76
2022/11/28 03:03:54;;;;;;;4.35;2.72;;;7.90;99.90;;;;;;5048023;28;20380;-75
2022/11/28 03:06:45;;;;;;;3.05;2.78;;;7.90;99.90;;;;;;5044884;28;20437;-76
2022/11/28 03:09:56;;;;;;;2.80;2.60;;;7.90;99.90;;;;;;5045507;28;20064;-76
2022/11/28 03:12:31;;;;;;;;;;;7.90;99.90;;;;;;5026631;28;20450;-76
2022/11/28 03:15:00;;;;;;;6.22;2.65;;;7.90;99.90;;;;;;5028223;28;19955;-76
2022/11/28 03:17:48;;;;;;;6.03;3.33;;;7.80;99.90;;;;;;5032792;28;20114;-76
2022/11/28 03:20:23;;;;;;;5.20;2.42;;;7.90;99.90;;;;;;5045940;28;20084;-76
2022/11/28 03:23:11;;;;;;;6.20;3.25;;;7.80;99.90;;;;;;5047736;28;20029;-76
2022/11/28 03:25:48;;;;;;;2.70;2.50;;;7.80;99.90;;;;;;5047773;28;20089;-76
2022/11/28 03:28:34;;;;;;;3.25;2.95;;;7.90;99.90;;;;;;5046319;28;20021;-76
2022/11/28 03:31:05;;;;;;;3.25;2.95;;;7.80;99.90;;;;;;5036970;28;20028;-76
2022/11/28 03:33:35;;;;;;;6.20;2.90;;;7.80;99.90;;;;;;5010318;28;20026;-76
2022/11/28 03:36:10;;;;;;;3.22;2.92;;;7.80;99.90;;;;;;5027861;28;20057;-76
2022/11/28 03:38:41;;;;;;;2.80;2.55;;;7.80;99.90;;;;;;5027606;28;20037;-76
2022/11/28 03:41:17;;;;;;;4.03;2.38;;;7.80;99.90;;;;;;5038349;28;20036;-76
2022/11/28 03:43:51;;;;;;;3.83;2.90;;;7.80;99.90;;;;;;5046218;28;20390;-76
2022/11/28 03:46:21;;;;;;;3.28;2.95;;;7.90;99.90;;;;;;5047363;28;20037;-75
2022/11/28 03:48:52;;;;;;;5.05;3.05;;;7.80;99.90;;;;;;5046079;28;20060;-76
2022/11/28 03:51:24;;;;;;;3.00;2.42;;;7.80;99.90;;;;;;5034750;28;20061;-76
2022/11/28 03:53:55;;;;;;;4.78;2.22;;;7.80;99.90;;;;;;5026200;28;20101;-76
2022/11/28 03:56:29;;;;;;;2.88;2.55;;;7.80;99.90;;;;;;5027417;28;20070;-76
2022/11/28 03:59:17;;;;;;;4.25;2.83;;;7.80;99.90;;;;;;5026236;28;20033;-76
2022/11/28 04:01:58;;;;;;;2.60;2.40;;;7.80;99.90;;;;;;5041608;28;20116;-76
2022/11/28 04:04:40;;;;;;;2.63;2.42;;;7.80;99.90;;;;;;5046955;28;20045;-76
2022/11/28 04:07:41;;;;;;;3.53;3.10;;;7.80;99.90;;;;;;5045728;28;20044;-75
2022/11/28 04:10:34;;;;;;;5.50;4.53;;;7.80;99.90;;;;;;5044614;28;20116;-76
2022/11/28 04:13:11;;;;;;;5.30;3.95;;;7.70;99.90;;;;;;5025956;28;20550;-76
2022/11/28 04:15:46;;;;;;;3.72;3.42;;;7.70;99.90;;;;;;5027000;28;20042;-76
2022/11/28 04:18:12;;;;;;;2.88;2.65;;;7.70;99.90;;;;;;5036825;28;20025;-76
2022/11/28 04:21:12;;;;;;;4.65;2.65;;;7.70;99.90;;;;;;5046010;28;20060;-76
2022/11/28 04:23:41;;;;;;;3.95;2.50;;;7.70;99.90;;;;;;5046635;28;20036;-76
2022/11/28 04:26:24;;;;;;;11.40;3.63;;;7.70;99.90;;;;;;5046513;28;20034;-76
2022/11/28 04:28:51;;;;;;;8.48;3.80;;;7.70;99.90;;;;;;5046511;28;20039;-76
2022/11/28 04:31:21;;;;;;;6.53;3.90;;;7.70;99.90;;;;;;5033554;28;20034;-76
2022/11/28 04:33:59;;;;;;;3.85;2.70;;;7.70;99.90;;;;;;5025477;28;20026;-76
2022/11/28 04:36:26;;;;;;;4.88;3.30;;;7.70;99.90;;;;;;5025405;28;20033;-76
2022/11/28 04:38:55;;;;;;;4.57;4.18;;;7.70;99.90;;;;;;5026581;28;20053;-76
2022/11/28 04:41:35;;;;;;;3.13;2.83;;;7.80;99.90;;;;;;5036821;28;20045;-76
2022/11/28 04:44:12;;;;;;;3.60;3.30;;;7.70;99.90;;;;;;5046512;28;20037;-76
2022/11/28 04:46:46;;;;;;;3.88;3.40;;;7.70;99.90;;;;;;5045088;28;20033;-76
2022/11/28 04:49:12;;;;;;;7.10;3.97;;;7.70;99.90;;;;;;5046301;28;20034;-76
2022/11/28 04:51:43;;;;;;;4.18;3.83;;;7.70;99.90;;;;;;5031531;28;20053;-76
2022/11/28 04:54:23;;;;;;;7.82;3.63;;;7.70;99.90;;;;;;5025421;28;20030;-76
2022/11/28 04:56:54;;;;;;;4.40;3.58;;;7.70;99.90;;;;;;5026450;28;20113;-76
2022/11/28 04:59:23;;;;;;;5.47;4.10;;;7.70;99.90;;;;;;5026281;28;20033;-76
2022/11/28 05:01:49;;;;;;;5.15;3.80;;;7.60;99.90;;;;;;5023426;28;20028;-76
2022/11/28 05:04:16;;;;;;;4.20;2.95;;;7.60;99.90;;;;;;5044157;28;20065;-76
2022/11/28 05:06:42;;;;;;;3.30;3.00;;;7.70;99.90;;;;;;5046092;28;20083;-76
2022/11/28 05:09:11;;;;;;;3.97;3.58;;;7.70;99.90;;;;;;5044606;28;20025;-76
2022/11/28 05:11:38;;;;;;;4.25;3.33;;;7.70;99.90;;;;;;5042976;28;20026;-76
2022/11/28 05:14:04;;;;;;;6.03;3.33;;;7.70;99.90;;;;;;5044566;28;20048;-76
2022/11/28 05:16:29;;;;;;;6.55;3.90;;;7.70;99.90;;;;;;5045997;28;20478;-76
2022/11/28 05:18:55;;;;;;;4.65;4.13;;;7.70;99.90;;;;;;5044499;28;20092;-76
2022/11/28 05:21:22;;;;;;;2.78;2.58;;;7.70;99.90;;;;;;5043962;28;20030;-76
2022/11/28 05:23:48;;;;;;;8.40;3.95;;;7.70;99.90;;;;;;5045752;28;20093;-76
2022/11/28 05:26:20;;;;;;;3.63;3.33;;;7.70;99.90;;;;;;5045935;28;20033;-76
2022/11/28 05:28:48;;;;;;;4.90;3.47;;;7.60;99.90;;;;;;5045890;28;20026;-76
2022/11/28 05:31:14;;;;;;;3.65;3.38;;;7.70;99.90;;;;;;5039369;28;20375;-76
2022/11/28 05:33:40;;;;;;;6.30;3.85;;;7.70;99.90;;;;;;5038635;28;20033;-76
2022/11/28 05:36:08;;;;;;;8.32;3.95;;;7.70;99.90;;;;;;5045088;28;20124;-76
2022/11/28 05:38:34;;;;;;;5.93;4.20;;;7.70;99.90;;;;;;5037037;28;20065;-76
2022/11/28 05:41:01;;;;;;;5.05;3.65;;;7.70;99.90;;;;;;5036180;28;20029;-76
2022/11/28 05:43:27;;;;;;;6.93;3.85;;;7.70;99.90;;;;;;5036647;28;20033;-76
2022/11/28 05:45:54;;;;;;;4.60;2.97;;;7.70;99.90;;;;;;5041612;28;20025;-76
2022/11/28 05:48:20;;;;;;;4.35;3.90;;;7.70;99.90;;;;;;5028805;28;20090;-76
2022/11/28 05:50:45;;;;;;;4.13;3.72;;;7.80;99.90;;;;;;5040967;28;20034;-76
2022/11/28 05:53:12;;;;;;;3.58;3.22;;;7.80;99.90;;;;;;5034485;28;20033;-76
2022/11/28 05:55:39;;;;;;;3.58;3.17;;;7.70;99.90;;;;;;5027706;28;20051;-76
2022/11/28 05:58:05;;;;;;;4.00;3.67;;;7.70;99.90;;;;;;5045306;28;20448;-76
2022/11/28 06:00:31;;;;;;;4.43;4.03;;;7.70;99.90;;;;;;5027662;28;20094;-76
2022/11/28 06:02:58;;;;;;;4.28;3.80;;;7.90;99.90;;;;;;5030426;28;20026;-76
2022/11/28 06:05:24;;;;;;;3.58;3.00;;;7.80;99.90;;;;;;5042863;28;20049;-76
2022/11/28 06:07:50;;;;;;;5.28;3.80;;;7.80;99.90;;;;;;5025699;28;20030;-76
2022/11/28 06:10:16;;;;;;;4.88;4.38;;;7.80;99.90;;;;;;5011642;28;20058;-76
2022/11/28 06:12:41;;;;;;;3.85;3.50;;;7.80;99.90;;;;;;5029001;28;20364;-76
2022/11/28 06:15:07;;;;;;;8.57;3.33;;;7.80;99.90;;;;;;5027640;28;20101;-75
2022/11/28 06:17:33;;;;;;;4.72;4.32;;;7.80;99.90;;;;;;5012576;28;20095;-76
2022/11/28 06:19:59;;;;;;;4.00;2.85;;;7.80;99.90;;;;;;5047596;28;20029;-76
2022/11/28 06:22:25;;;;;;;3.70;3.40;;;7.80;99.90;;;;;;5046514;28;20041;-76
2022/11/28 06:24:51;;;;;;;5.28;3.53;;;7.80;99.90;;;;;;5048826;28;20367;-76
2022/11/28 06:27:17;;;;;;;5.45;5.03;;;7.80;99.90;;;;;;5027194;28;20025;-76
2022/11/28 06:29:42;;;;;;;4.55;3.67;;;7.80;99.90;;;;;;5052713;28;20036;-76
2022/11/28 06:32:08;;;;;;;6.88;4.30;;;7.80;99.90;;;;;;5044868;28;20022;-76
2022/11/28 06:34:34;;;;;;;6.18;4.05;;;7.80;99.90;;;;;;5035434;28;20479;-76
2022/11/28 06:37:00;;;;;;;4.20;3.75;;;7.80;99.90;;;;;;5037821;28;20025;-76
2022/11/28 06:39:26;;;;;;;5.63;4.03;;;7.80;99.90;;;;;;5021208;28;20105;-76
2022/11/28 06:41:51;;;;;;;4.80;4.35;;;7.80;99.90;;;;;;5037739;28;20032;-76
2022/11/28 06:44:17;;;;;;;9.05;5.65;;;7.80;99.90;;;;;;5034991;28;20021;-76
2022/11/28 06:46:43;;;;;;;13.10;10.45;;;7.90;99.90;;;;;;5019692;28;20053;-76
2022/11/28 06:49:12;;;;;;;14.23;9.98;;;7.80;99.90;;;;;;5021078;28;20036;-76
2022/11/28 06:51:39;;;;;;;20.40;11.20;;;7.90;99.90;;;;;;5036530;28;20030;-76
2022/11/28 06:54:06;;;;;;;28.00;18.67;;;7.80;99.90;;;;;;5034334;28;20284;-76
2022/11/28 06:56:32;;;;;;;40.55;27.33;;;7.90;99.90;;;;;;5037400;28;20035;-76
2022/11/28 06:58:58;;;;;;;26.42;19.23;;;7.90;99.90;;;;;;5019894;28;20053;-75
2022/11/28 07:01:27;;;;;;;7.38;6.03;;;7.90;99.90;;;;;;5035812;28;20441;-76
2022/11/28 07:03:53;;;;;;;8.80;7.43;;;7.80;99.90;;;;;;5036288;28;20049;-76
2022/11/28 07:06:20;;;;;;;9.25;7.63;;;7.80;99.90;;;;;;5036233;28;20048;-76
2022/11/28 07:08:47;;;;;;;12.77;9.52;;;7.80;99.90;;;;;;5038612;28;20051;-76
2022/11/28 07:11:15;;;;;;;6.90;6.22;;;7.80;99.90;;;;;;5036828;28;20081;-76
2022/11/28 07:13:42;;;;;;;9.23;8.32;;;7.80;99.90;;;;;;5034853;28;20021;-76
2022/11/28 07:16:13;;;;;;;10.38;9.05;;;7.80;99.90;;;;;;5034535;28;20036;-76
2022/11/28 07:18:39;;;;;;;13.52;9.82;;;7.80;99.90;;;;;;5036226;28;20064;-76
2022/11/28 07:21:05;;;;;;;12.27;7.30;;;7.80;99.90;;;;;;5038363;28;20026;-76
2022/11/28 07:23:31;;;;;;;10.23;8.73;;;7.80;99.90;;;;;;5033999;28;20037;-76
2022/11/28 07:26:01;;;;;;;6.97;5.28;;;7.80;99.90;;;;;;5035802;28;20025;-76
2022/11/28 07:28:28;;;;;;;8.57;7.82;;;7.80;99.90;;;;;;5034979;28;20068;-76
2022/11/28 07:31:06;;;;;;;8.85;6.90;;;7.80;99.90;;;;;;5037780;28;20029;-76
2022/11/28 07:33:34;;;;;;;17.83;14.90;;;7.80;99.90;;;;;;5035776;28;20036;-76
2022/11/28 07:36:05;;;;;;;9.02;8.13;;;7.80;99.90;;;;;;5035899;28;20549;-75
2022/11/28 07:38:31;;;;;;;9.82;8.77;;;7.90;99.90;;;;;;5038051;28;20056;-76
2022/11/28 07:41:12;;;;;;;8.05;7.05;;;7.80;99.90;;;;;;5035669;28;20045;-76
2022/11/28 07:43:41;;;;;;;5.97;5.15;;;7.90;99.90;;;;;;5035160;28;20028;-75
2022/11/28 07:46:10;;;;;;;5.07;4.68;;;7.90;99.90;;;;;;5037861;28;20041;-76
2022/11/28 07:48:36;;;;;;;5.50;4.93;;;7.90;99.90;;;;;;5034994;28;20028;-76
2022/11/28 07:51:11;;;;;;;11.43;7.55;;;7.90;99.90;;;;;;5035355;28;20025;-76
2022/11/28 07:53:38;;;;;;;4.97;4.57;;;7.90;99.90;;;;;;5035468;28;20032;-76
2022/11/28 07:56:06;;;;;;;8.38;7.53;;;7.90;99.90;;;;;;5036216;28;20476;-76
2022/11/28 07:58:34;;;;;;;7.65;6.95;;;7.90;99.90;;;;;;5035670;28;20029;-75
2022/11/28 08:01:14;;;;;;;5.65;5.07;;;7.90;99.90;;;;;;5036788;28;20031;-76
2022/11/28 08:03:39;;;;;;;3.83;3.53;;;7.90;99.90;;;;;;5035294;28;20042;-76
2022/11/28 08:06:06;;;;;;;6.20;5.60;;;8.00;99.90;;;;;;5033793;28;20104;-76
2022/11/28 08:08:32;;;;;;;3.78;3.42;;;8.00;99.90;;;;;;5035488;28;20106;-76
2022/11/28 08:11:01;;;;;;;5.15;4.75;;;8.00;99.90;;;;;;5033766;28;20022;-76
2022/11/28 08:13:27;;;;;;;7.03;5.82;;;8.00;99.90;;;;;;5035556;28;20034;-76
2022/11/28 08:15:54;;;;;;;4.60;4.22;;;8.00;99.90;;;;;;5039257;28;20124;-76
2022/11/28 08:18:20;;;;;;;5.43;4.70;;;8.00;99.90;;;;;;5011530;28;20026;-76
2022/11/28 08:20:46;;;;;;;6.22;5.72;;;8.00;99.90;;;;;;5028757;28;20160;-76
2022/11/28 08:23:11;;;;;;;7.55;5.47;;;8.00;99.90;;;;;;5031445;28;20168;-76
2022/11/28 08:25:38;;;;;;;6.65;5.32;;;8.00;99.90;;;;;;5007403;28;20036;-76
2022/11/28 08:28:03;;;;;;;6.43;5.85;;;8.10;99.90;;;;;;5017859;28;20034;-76
2022/11/28 08:30:29;;;;;;;6.07;5.57;;;8.10;99.90;;;;;;5025265;28;20037;-76
2022/11/28 08:32:56;;;;;;;4.93;4.43;;;8.10;99.90;;;;;;5028202;28;20026;-75
2022/11/28 08:35:22;;;;;;;6.93;4.70;;;8.10;99.90;;;;;;5036053;28;20034;-76
2022/11/28 08:37:48;;;;;;;6.55;5.35;;;8.10;99.90;;;;;;5046247;28;20036;-75
2022/11/28 08:40:14;;;;;;;4.82;4.53;;;8.10;99.90;;;;;;5027511;28;20045;-76
2022/11/28 08:42:40;;;;;;;8.35;7.65;;;8.20;99.90;;;;;;5037787;28;20034;-77
2022/11/28 08:45:06;;;;;;;5.53;5.03;;;8.20;99.90;;;;;;5016165;28;20033;-76
2022/11/28 08:47:32;;;;;;;7.20;6.47;;;8.20;99.90;;;;;;5025669;28;20034;-76
2022/11/28 08:49:58;;;;;;;7.32;5.70;;;8.20;99.90;;;;;;5035356;28;20502;-76
2022/11/28 08:52:25;;;;;;;5.97;5.15;;;8.20;99.90;;;;;;5033968;28;20022;-76
2022/11/28 08:54:51;;;;;;;7.30;6.70;;;8.20;99.90;;;;;;5038323;28;20435;-76
2022/11/28 08:57:16;;;;;;;4.97;4.57;;;8.20;99.90;;;;;;5033734;28;20068;-76
2022/11/28 08:59:42;;;;;;;5.20;4.70;;;8.20;99.90;;;;;;5024445;28;20084;-77
2022/11/28 09:02:10;;;;;;;5.88;4.68;;;8.30;99.90;;;;;;5025944;28;20026;-77
2022/11/28 09:04:36;;;;;;;5.07;4.68;;;8.40;99.90;;;;;;5026412;28;20057;-77
2022/11/28 09:07:02;;;;;;;6.45;5.00;;;8.30;99.90;;;;;;5029009;28;20026;-76
2022/11/28 09:09:28;;;;;;;6.25;5.63;;;8.40;99.90;;;;;;5024696;28;20032;-76
2022/11/28 09:11:54;;;;;;;6.35;4.97;;;8.40;99.90;;;;;;5036098;28;20038;-77
2022/11/28 09:14:20;;;;;;;4.40;4.05;;;8.40;99.90;;;;;;5041533;28;20036;-76
2022/11/28 09:16:46;;;;;;;5.22;4.80;;;8.40;99.90;;;;;;5035764;28;20459;-77
2022/11/28 09:19:12;;;;;;;5.80;5.25;;;8.40;99.90;;;;;;5044385;28;20029;-76
2022/11/28 09:21:39;;;;;;;4.65;4.20;;;8.50;99.90;;;;;;5045557;28;20033;-76
2022/11/28 09:24:05;;;;;;;5.75;5.25;;;8.50;99.90;;;;;;5012935;28;20022;-76
2022/11/28 09:26:32;;;;;;;6.47;5.22;;;8.60;99.90;;;;;;5023816;28;20053;-76
2022/11/28 09:28:58;;;;;;;5.82;5.30;;;8.60;99.90;;;;;;5026012;28;20081;-77
2022/11/28 09:31:23;;;;;;;31.88;23.00;;;8.60;99.90;;;;;;5037254;28;20482;-77
2022/11/28 09:33:49;;;;;;;28.52;23.15;;;8.60;99.90;;;;;;5031787;28;20056;-77
2022/11/28 09:36:18;;;;;;;18.55;13.60;;;8.60;99.90;;;;;;5031336;28;20060;-77
2022/11/28 09:38:44;;;;;;;21.77;15.70;;;8.70;99.90;;;;;;5048368;28;20033;-76
2022/11/28 09:41:25;;;;;;;10.30;7.82;;;8.70;99.90;;;;;;5048343;28;20029;-76
2022/11/28 09:43:52;;;;;;;8.63;7.80;;;8.80;99.90;;;;;;5038172;28;20052;-76
2022/11/28 09:46:28;;;;;;;23.73;18.55;;;8.80;99.90;;;;;;5035292;28;20029;-76
2022/11/28 09:48:58;;;;;;;16.67;12.30;;;8.80;99.90;;;;;;5036785;28;20030;-76
2022/11/28 09:51:41;;;;;;;9.55;7.93;;;8.80;99.90;;;;;;5037030;28;20056;-77
2022/11/28 09:54:40;;;;;;;13.05;10.82;;;8.80;99.90;;;;;;5019782;28;20026;-76
2022/11/28 09:57:31;;;;;;;27.90;22.15;;;8.90;99.90;;;;;;5011359;28;20042;-77
2022/11/28 09:59:57;;;;;;;8.43;7.53;;;8.90;99.90;;;;;;5034172;28;20029;-76
2022/11/28 10:02:33;;;;;;;8.10;7.40;;;9.00;99.90;;;;;;5035045;28;20575;-76
2022/11/28 10:05:11;;;;;;;41.88;32.38;;;8.90;99.90;;;;;;5028957;28;20053;-77
2022/11/28 10:07:57;;;;;;;9.50;8.57;;;9.00;99.90;;;;;;5048611;28;20026;-77
2022/11/28 10:11:08;;;;;;;11.20;10.00;;;9.00;99.90;;;;;;5032794;28;20038;-76
2022/11/28 10:13:58;;;;;;;10.77;9.75;;;9.10;99.90;;;;;;5042534;28;20133;-76
2022/11/28 10:16:50;;;;;;;11.05;9.82;;;9.20;99.90;;;;;;5028969;28;20064;-76
2022/11/28 10:19:22;;;;;;;12.88;10.48;;;9.20;99.90;;;;;;5036411;28;20025;-76
2022/11/28 10:21:52;;;;;;;13.70;10.13;;;9.10;99.90;;;;;;5027586;28;20065;-77
2022/11/28 10:24:30;;;;;;;8.93;8.02;;;9.20;99.90;;;;;;5035606;28;20048;-76
2022/11/28 10:27:03;;;;;;;15.52;13.95;;;9.20;99.90;;;;;;5044932;28;20029;-77
2022/11/28 10:29:51;;;;;;;12.40;8.35;;;9.20;99.90;;;;;;5036725;28;20044;-76
2022/11/28 10:32:25;;;;;;;13.23;10.15;;;9.20;99.90;;;;;;5027149;28;20065;-76
2022/11/28 10:35:10;;;;;;;15.70;11.00;;;9.20;99.90;;;;;;5039801;28;20057;-76
2022/11/28 10:37:37;;;;;;;10.85;9.48;;;9.20;99.90;;;;;;5034731;28;20026;-76
2022/11/28 10:40:15;;;;;;;16.63;7.72;;;9.20;99.90;;;;;;5035002;28;20101;-76
2022/11/28 10:42:55;;;;;;;14.48;12.18;;;9.20;99.90;;;;;;5031632;28;20097;-77
2022/11/28 10:45:26;;;;;;;;;;;9.20;99.90;;;;;;5042576;28;20029;-76
2022/11/28 10:48:19;;;;;;;18.42;14.90;;;9.20;99.90;;;;;;5048142;28;19909;-76
2022/11/28 10:50:59;;;;;;;11.63;10.32;;;9.20;99.90;;;;;;5038070;28;20049;-76
2022/11/28 10:53:43;;;;;;;21.42;10.23;;;9.20;99.90;;;;;;5038488;28;20053;-76
2022/11/28 10:56:27;;;;;;;11.15;8.77;;;9.20;99.90;;;;;;5028412;28;20034;-76
2022/11/28 10:59:34;;;;;;;12.35;8.88;;;9.20;99.90;;;;;;5031896;28;20085;-76
2022/11/28 11:02:20;;;;;;;11.32;10.15;;;9.20;99.90;;;;;;5020302;28;20041;-76
2022/11/28 11:04:46;;;;;;;11.32;10.13;;;9.30;99.90;;;;;;5045707;28;20041;-76
2022/11/28 11:07:24;;;;;;;8.95;7.95;;;9.30;99.90;;;;;;5033252;28;20030;-76
2022/11/28 11:09:51;;;;;;;11.80;8.77;;;9.30;99.90;;;;;;5034737;28;20029;-76
2022/11/28 11:12:29;;;;;;;12.70;9.88;;;9.30;99.90;;;;;;5041019;28;20037;-76
2022/11/28 11:14:55;;;;;;;25.08;11.68;;;9.30;99.90;;;;;;5027181;28;20033;-76
2022/11/28 11:17:26;;;;;;;20.35;16.00;;;9.30;99.90;;;;;;5036537;28;20033;-76
2022/11/28 11:19:52;;;;;;;11.65;10.13;;;9.30;99.90;;;;;;5040788;28;20041;-76
2022/11/28 11:22:22;;;;;;;11.98;8.90;;;9.40;99.90;;;;;;5021204;28;20034;-76
2022/11/28 11:25:14;;;;;;;13.95;9.80;;;9.40;99.90;;;;;;5025294;28;20033;-76
2022/11/28 11:27:59;;;;;;;19.40;9.52;;;9.40;99.90;;;;;;5031121;28;20474;-76
2022/11/28 11:30:29;;;;;;;14.25;10.50;;;9.40;99.90;;;;;;5026680;28;20034;-76
2022/11/28 11:32:57;;;;;;;;;;;9.50;99.90;;;;;;5025877;28;20104;-75
2022/11/28 11:35:38;;;;;;;17.23;11.02;;;9.50;99.90;;;;;;5037249;28;20007;-76
2022/11/28 11:38:19;;;;;;;18.33;11.70;;;9.50;99.90;;;;;;5041623;28;20108;-76
2022/11/28 11:40:45;;;;;;;17.70;11.75;;;9.50;99.90;;;;;;5045626;28;20033;-76
2022/11/28 11:43:27;;;;;;;17.25;11.05;;;9.60;99.90;;;;;;5046566;28;20036;-76
2022/11/28 11:46:03;;;;;;;14.05;10.93;;;9.70;99.90;;;;;;5042366;28;20109;-76
2022/11/28 11:48:40;;;;;;;16.90;9.70;;;9.70;99.90;;;;;;5036794;28;20105;-76
2022/11/28 11:51:20;;;;;;;11.07;8.57;;;9.70;99.90;;;;;;5014258;28;20030;-76
2022/11/28 11:53:46;;;;;;;14.07;10.93;;;9.70;99.90;;;;;;5040883;28;20036;-76
2022/11/28 11:56:12;;;;;;;15.95;11.75;;;9.80;99.90;;;;;;5028986;28;20029;-75
2022/11/28 11:58:41;;;;;;;13.80;9.63;;;9.80;99.90;;;;;;5026744;28;20030;-76
2022/11/28 12:01:09;;;;;;;11.23;9.25;;;9.80;99.90;;;;;;5027460;28;20036;-76
2022/11/28 12:03:52;;;;;;;15.68;8.95;;;10.00;99.90;;;;;;5045106;28;20060;-76
2022/11/28 12:06:27;;;;;;;16.85;9.55;;;10.00;99.90;;;;;;5029677;28;20045;-76
2022/11/28 12:09:01;;;;;;;12.65;8.57;;;10.10;99.90;;;;;;5032548;28;20089;-76
2022/11/28 12:11:33;;;;;;;13.95;9.60;;;10.20;99.90;;;;;;5034218;28;20035;-76
2022/11/28 12:14:21;;;;;;;12.57;9.20;;;10.30;99.90;;;;;;5031953;28;20034;-76
2022/11/28 12:17:14;;;;;;;9.50;7.68;;;10.40;99.90;;;;;;5025690;28;20038;-76
2022/11/28 12:19:55;;;;;;;8.73;7.20;;;10.40;99.90;;;;;;5026639;28;20387;-76
2022/11/28 12:22:58;;;;;;;10.38;9.40;;;10.40;99.90;;;;;;5034716;28;20037;-76
2022/11/28 12:25:35;;;;;;;6.95;6.22;;;10.40;99.90;;;;;;5025058;28;20087;-76
2022/11/28 12:28:23;;;;;;;12.15;7.43;;;10.30;99.90;;;;;;5026675;28;20033;-76
2022/11/28 12:31:01;;;;;;;17.10;8.18;;;10.30;99.90;;;;;;5026241;28;20026;-76
2022/11/28 12:33:38;;;;;;;15.85;14.15;;;10.30;99.90;;;;;;5026569;28;20031;-76
2022/11/28 12:36:33;;;;;;;15.02;9.80;;;10.40;99.90;;;;;;5038277;28;20045;-76
2022/11/28 12:39:23;;;;;;;11.48;8.10;;;10.30;99.90;;;;;;5041465;28;20045;-76
2022/11/28 12:42:04;;;;;;;21.88;17.42;;;10.30;99.90;;;;;;5029327;28;20021;-76
2022/11/28 12:44:57;;;;;;;10.90;9.43;;;10.30;99.90;;;;;;5031143;28;20057;-76
2022/11/28 12:47:32;;;;;;;23.00;18.45;;;10.40;99.90;;;;;;5024424;28;20026;-76
2022/11/28 12:50:10;;;;;;;19.20;11.73;;;10.40;99.90;;;;;;5056481;28;20026;-76
2022/11/28 12:52:47;;;;;;;18.92;9.18;;;10.40;99.90;;;;;;5028688;28;20052;-76
2022/11/28 12:55:41;;;;;;;9.80;7.95;;;10.40;99.90;;;;;;5032750;28;20033;-76
2022/11/28 12:58:22;;;;;;;12.02;8.35;;;10.40;99.90;;;;;;5045863;28;20037;-76
2022/11/28 13:00:57;;;;;;;19.88;11.35;;;10.40;99.90;;;;;;5045855;28;20037;-76
2022/11/28 13:03:31;;;;;;;11.30;8.55;;;10.40;99.90;;;;;;5024495;28;20057;-76
2022/11/28 13:06:08;;;;;;;8.98;7.93;;;10.40;99.90;;;;;;5024470;28;20042;-76
2022/11/28 13:09:09;;;;;;;13.85;10.50;;;10.40;99.90;;;;;;5036027;28;20048;-76
2022/11/28 13:11:51;;;;;;;10.40;9.32;;;10.40;99.90;;;;;;5030384;28;20037;-76
2022/11/28 13:14:22;;;;;;;16.30;9.75;;;10.50;99.90;;;;;;5025801;28;20052;-76
2022/11/28 13:16:52;;;;;;;16.52;10.70;;;10.50;99.90;;;;;;5042898;28;20029;-76
2022/11/28 13:19:37;;;;;;;11.93;8.35;;;10.50;99.90;;;;;;5045588;28;20037;-76
2022/11/28 13:22:09;;;;;;;13.43;8.98;;;10.50;99.90;;;;;;5036412;28;20062;-76